Wetterdaten: Woche 26.05.14 - 01.06.14 (KW22)
Datum Zeit Temp. Aussen +5cm Feuchte Auss Luftdruck Regen Sonnenschein Regendauer UV Solar Windben
26.05.2014 00:00 15,9 C 14,3 C 73 % 1018,4 hPa 0,0 l/m 0,00 h 0,00 h 0,0 UV-I 0 W/m 0,1 km/h (0 Bft)
26.05.2014 01:00 15,3 C 13,3 C 77 % 1018,3 hPa 0,0 l/m 0,00 h 0,00 h 0,0 UV-I 0 W/m 0,0 km/h (0 Bft)
26.05.2014 02:00 14,9 C 12,8 C 79 % 1018,2 hPa 0,0 l/m 0,00 h 0,00 h 0,0 UV-I 0 W/m 0,0 km/h (0 Bft)
26.05.2014 03:00 15,1 C 12,8 C 78 % 1017,8 hPa 0,0 l/m 0,00 h 0,00 h 0,0 UV-I 0 W/m 0,0 km/h (0 Bft)
26.05.2014 04:00 15,2 C 13,0 C 77 % 1017,5 hPa 0,0 l/m 0,00 h 0,00 h 0,0 UV-I 0 W/m 0,0 km/h (0 Bft)
26.05.2014 05:00 14,4 C 12,2 C 81 % 1017,1 hPa 0,0 l/m 0,00 h 0,00 h 0,0 UV-I 7 W/m 0,0 km/h (0 Bft)
26.05.2014 06:00 14,1 C 12,9 C 85 % 1016,9 hPa 0,0 l/m 0,00 h 0,00 h 0,0 UV-I 41 W/m 0,1 km/h (0 Bft)
26.05.2014 07:00 15,3 C 14,4 C 81 % 1016,6 hPa 0,0 l/m 0,00 h 0,00 h 0,0 UV-I 93 W/m 0,6 km/h (0 Bft)
26.05.2014 08:00 16,9 C 16,2 C 74 % 1016,3 hPa 0,0 l/m 0,40 h 0,00 h 0,0 UV-I 211 W/m 3,1 km/h (1 Bft)
26.05.2014 09:00 17,7 C 16,9 C 72 % 1016,3 hPa 0,0 l/m 0,00 h 0,03 h 0,0 UV-I 145 W/m 4,6 km/h (1 Bft)
26.05.2014 10:00 17,3 C 16,5 C 75 % 1016,0 hPa 0,0 l/m 0,00 h 0,07 h 0,0 UV-I 127 W/m 1,2 km/h (1 Bft)
26.05.2014 11:00 17,7 C 17,3 C 75 % 1015,7 hPa 0,0 l/m 0,00 h 0,00 h 0,7 UV-I 177 W/m 2,3 km/h (1 Bft)
26.05.2014 12:00 17,9 C 16,4 C 79 % 1015,5 hPa 0,0 l/m 0,00 h 0,37 h 0,6 UV-I 136 W/m 2,5 km/h (1 Bft)
26.05.2014 13:00 18,4 C 17,1 C 80 % 1015,3 hPa 0,2 l/m 0,00 h 0,70 h 0,7 UV-I 202 W/m 4,7 km/h (1 Bft)
26.05.2014 14:00 17,4 C 15,9 C 90 % 1014,8 hPa 0,6 l/m 0,00 h 0,97 h 0,7 UV-I 216 W/m 1,5 km/h (1 Bft)
26.05.2014 15:00 18,3 C 17,4 C 90 % 1013,7 hPa 0,0 l/m 0,43 h 0,07 h 1,7 UV-I 399 W/m 5,8 km/h (2 Bft)
26.05.2014 16:00 19,7 C 18,5 C 82 % 1013,1 hPa 0,0 l/m 0,87 h 0,00 h 1,4 UV-I 431 W/m 10,2 km/h (2 Bft)
26.05.2014 17:00 20,4 C 20,2 C 77 % 1012,5 hPa 0,0 l/m 0,50 h 0,00 h 1,0 UV-I 361 W/m 9,3 km/h (2 Bft)
26.05.2014 18:00 19,6 C 18,6 C 80 % 1012,0 hPa 0,0 l/m 0,00 h 0,00 h 0,0 UV-I 144 W/m 4,0 km/h (1 Bft)
26.05.2014 19:00 19,0 C 18,3 C 82 % 1011,6 hPa 0,0 l/m 0,00 h 0,00 h 0,0 UV-I 120 W/m 5,0 km/h (1 Bft)
26.05.2014 20:00 18,4 C 17,2 C 84 % 1011,6 hPa 0,0 l/m 0,00 h 0,00 h 0,0 UV-I 49 W/m 2,2 km/h (1 Bft)
26.05.2014 21:00 17,4 C 16,1 C 87 % 1011,5 hPa 0,0 l/m 0,00 h 0,00 h 0,0 UV-I 9 W/m 1,8 km/h (1 Bft)
26.05.2014 22:00 16,5 C 15,3 C 90 % 1011,6 hPa 0,0 l/m 0,00 h 0,00 h 0,0 UV-I 0 W/m 0,8 km/h (0 Bft)
26.05.2014 23:00 15,9 C 14,5 C 93 % 1011,3 hPa 0,0 l/m 0,00 h 0,00 h 0,0 UV-I 0 W/m 0,0 km/h (0 Bft)
27.05.2014 00:00 15,5 C 14,1 C 94 % 1011,0 hPa 0,0 l/m 0,00 h 0,00 h 0,0 UV-I 0 W/m 0,0 km/h (0 Bft)
27.05.2014 01:00 15,3 C 13,9 C 96 % 1010,8 hPa 0,0 l/m 0,00 h 0,20 h 0,0 UV-I 0 W/m 0,0 km/h (0 Bft)
27.05.2014 02:00 15,3 C 13,9 C 97 % 1010,3 hPa 0,2 l/m 0,00 h 0,73 h 0,0 UV-I 0 W/m 0,0 km/h (0 Bft)
27.05.2014 03:00 15,2 C 13,9 C 98 % 1010,3 hPa 0,6 l/m 0,00 h 0,70 h 0,0 UV-I 0 W/m 0,1 km/h (0 Bft)
27.05.2014 04:00 15,1 C 13,9 C 98 % 1009,8 hPa 1,8 l/m 0,00 h 0,97 h 0,0 UV-I 0 W/m 0,0 km/h (0 Bft)
27.05.2014 05:00 15,0 C 13,9 C 99 % 1009,7 hPa 2,8 l/m 0,00 h 0,97 h 0,0 UV-I 6 W/m 0,4 km/h (0 Bft)
27.05.2014 06:00 14,7 C 13,7 C 99 % 1009,7 hPa 2,2 l/m 0,00 h 0,97 h 0,0 UV-I 13 W/m 0,4 km/h (0 Bft)
27.05.2014 07:00 14,7 C 13,8 C 99 % 1009,8 hPa 3,4 l/m 0,00 h 0,97 h 0,0 UV-I 27 W/m 0,0 km/h (0 Bft)
27.05.2014 08:00 14,9 C 14,0 C 99 % 1009,5 hPa 0,6 l/m 0,00 h 0,97 h 0,0 UV-I 72 W/m 0,2 km/h (0 Bft)
27.05.2014 09:00 15,1 C 14,2 C 100 % 1009,6 hPa 0,4 l/m 0,00 h 0,97 h 0,0 UV-I 67 W/m 1,6 km/h (1 Bft)
27.05.2014 10:00 14,7 C 13,9 C 99 % 1009,7 hPa 0,2 l/m 0,00 h 0,77 h 0,0 UV-I 46 W/m 4,8 km/h (1 Bft)
27.05.2014 11:00 14,6 C 13,9 C 99 % 1009,6 hPa 4,4 l/m 0,00 h 0,97 h 0,0 UV-I 62 W/m 3,1 km/h (1 Bft)
27.05.2014 12:00 14,6 C 13,8 C 99 % 1009,5 hPa 3,0 l/m 0,00 h 0,97 h 0,0 UV-I 65 W/m 7,2 km/h (2 Bft)
27.05.2014 13:00 14,5 C 13,5 C 99 % 1009,4 hPa 5,8 l/m 0,00 h 0,97 h 0,0 UV-I 54 W/m 4,1 km/h (1 Bft)
27.05.2014 14:00 14,8 C 13,9 C 99 % 1009,5 hPa 3,4 l/m 0,00 h 0,97 h 0,0 UV-I 65 W/m 4,3 km/h (1 Bft)
27.05.2014 15:00 14,8 C 13,9 C 99 % 1009,4 hPa 3,0 l/m 0,00 h 0,97 h 0,0 UV-I 71 W/m 2,5 km/h (1 Bft)
27.05.2014 16:00 14,9 C 14,2 C 99 % 1009,3 hPa 1,4 l/m 0,00 h 0,97 h 0,0 UV-I 115 W/m 2,1 km/h (1 Bft)
27.05.2014 17:00 15,3 C 14,7 C 100 % 1009,1 hPa 0,0 l/m 0,00 h 0,97 h 0,0 UV-I 132 W/m 2,7 km/h (1 Bft)
27.05.2014 18:00 15,6 C 14,6 C 99 % 1009,0 hPa 0,0 l/m 0,00 h 0,53 h 0,0 UV-I 114 W/m 5,3 km/h (1 Bft)
27.05.2014 19:00 15,4 C 14,2 C 98 % 1009,3 hPa 0,0 l/m 0,00 h 0,17 h 0,0 UV-I 40 W/m 6,1 km/h (2 Bft)
27.05.2014 20:00 14,8 C 13,4 C 98 % 1009,6 hPa 0,2 l/m 0,00 h 0,13 h 0,0 UV-I 12 W/m 5,9 km/h (2 Bft)
27.05.2014 21:00 14,3 C 13,1 C 98 % 1010,0 hPa 0,0 l/m 0,00 h 0,07 h 0,0 UV-I 5 W/m 7,0 km/h (2 Bft)
27.05.2014 22:00 14,1 C 12,8 C 98 % 1010,2 hPa 0,0 l/m 0,00 h 0,20 h 0,0 UV-I 0 W/m 7,9 km/h (2 Bft)
27.05.2014 23:00 13,9 C 12,8 C 97 % 1010,5 hPa 0,0 l/m 0,00 h 0,20 h 0,0 UV-I 0 W/m 4,8 km/h (1 Bft)
28.05.2014 00:00 13,8 C 12,3 C 97 % 1010,9 hPa 0,0 l/m 0,00 h 0,00 h 0,0 UV-I 0 W/m 7,9 km/h (2 Bft)
28.05.2014 01:00 13,7 C 12,2 C 96 % 1010,6 hPa 0,0 l/m 0,00 h 0,00 h 0,0 UV-I 0 W/m 5,3 km/h (1 Bft)
28.05.2014 02:00 13,5 C 12,2 C 96 % 1010,2 hPa 0,0 l/m 0,00 h 0,00 h 0,0 UV-I 0 W/m 6,2 km/h (2 Bft)
28.05.2014 03:00 13,4 C 12,2 C 95 % 1010,2 hPa 0,0 l/m 0,00 h 0,00 h 0,0 UV-I 0 W/m 6,6 km/h (2 Bft)
28.05.2014 04:00 13,2 C 12,0 C 95 % 1010,0 hPa 0,0 l/m 0,00 h 0,00 h 0,0 UV-I 0 W/m 7,6 km/h (2 Bft)
28.05.2014 05:00 12,9 C 11,7 C 96 % 1010,1 hPa 0,0 l/m 0,00 h 0,00 h 0,0 UV-I 5 W/m 7,0 km/h (2 Bft)
28.05.2014 06:00 12,7 C 11,7 C 97 % 1010,2 hPa 0,0 l/m 0,00 h 0,00 h 0,0 UV-I 13 W/m 6,4 km/h (2 Bft)
28.05.2014 07:00 12,8 C 11,8 C 95 % 1010,4 hPa 0,0 l/m 0,00 h 0,00 h 0,0 UV-I 28 W/m 9,5 km/h (2 Bft)
28.05.2014 08:00 13,0 C 12,2 C 94 % 1010,6 hPa 0,0 l/m 0,00 h 0,00 h 0,0 UV-I 66 W/m 8,3 km/h (2 Bft)
28.05.2014 09:00 13,5 C 12,8 C 93 % 1010,8 hPa 0,0 l/m 0,00 h 0,00 h 0,0 UV-I 83 W/m 5,4 km/h (1 Bft)
28.05.2014 10:00 14,1 C 13,1 C 91 % 1010,9 hPa 0,0 l/m 0,00 h 0,33 h 0,0 UV-I 124 W/m 6,8 km/h (2 Bft)
28.05.2014 11:00 14,4 C 13,4 C 92 % 1011,1 hPa 0,0 l/m 0,00 h 0,73 h 0,5 UV-I 177 W/m 3,5 km/h (1 Bft)
28.05.2014 12:00 14,5 C 14,0 C 92 % 1011,3 hPa 0,0 l/m 0,00 h 0,00 h 0,8 UV-I 178 W/m 3,4 km/h (1 Bft)
28.05.2014 13:00 15,6 C 15,6 C 87 % 1011,5 hPa 0,0 l/m 0,00 h 0,00 h 1,1 UV-I 256 W/m 5,2 km/h (1 Bft)
28.05.2014 14:00 16,0 C 15,8 C 86 % 1011,5 hPa 0,0 l/m 0,00 h 0,00 h 1,2 UV-I 215 W/m 6,9 km/h (2 Bft)
28.05.2014 15:00 14,8 C 13,7 C 91 % 1011,6 hPa 0,0 l/m 0,00 h 0,00 h 0,0 UV-I 67 W/m 2,3 km/h (1 Bft)
28.05.2014 16:00 15,0 C 14,4 C 90 % 1011,7 hPa 0,0 l/m 0,00 h 0,00 h 0,0 UV-I 102 W/m 2,3 km/h (1 Bft)
28.05.2014 17:00 14,5 C 13,1 C 93 % 1011,8 hPa 0,2 l/m 0,00 h 0,40 h 0,0 UV-I 57 W/m 0,4 km/h (0 Bft)
28.05.2014 18:00 14,3 C 12,9 C 95 % 1011,8 hPa 0,0 l/m 0,00 h 0,00 h 0,0 UV-I 62 W/m 1,1 km/h (0 Bft)
28.05.2014 19:00 14,2 C 12,9 C 95 % 1012,0 hPa 0,0 l/m 0,00 h 0,00 h 0,0 UV-I 38 W/m 0,4 km/h (0 Bft)
28.05.2014 20:00 14,2 C 13,0 C 96 % 1012,3 hPa 0,0 l/m 0,00 h 0,00 h 0,0 UV-I 22 W/m 0,0 km/h (0 Bft)
28.05.2014 21:00 14,2 C 12,8 C 96 % 1012,6 hPa 0,0 l/m 0,00 h 0,00 h 0,0 UV-I 10 W/m 0,0 km/h (0 Bft)
28.05.2014 22:00 14,0 C 12,8 C 97 % 1012,9 hPa 0,0 l/m 0,00 h 0,00 h 0,0 UV-I 0 W/m 0,0 km/h (0 Bft)
28.05.2014 23:00 13,7 C 12,4 C 98 % 1013,1 hPa 0,0 l/m 0,00 h 0,00 h 0,0 UV-I 0 W/m 0,0 km/h (0 Bft)
29.05.2014 00:00 13,6 C 12,2 C 98 % 1013,1 hPa 0,0 l/m 0,00 h 0,00 h 0,0 UV-I 0 W/m 0,0 km/h (0 Bft)
29.05.2014 01:00 13,6 C 12,4 C 98 % 1013,1 hPa 0,0 l/m 0,00 h 0,00 h 0,0 UV-I 0 W/m 0,0 km/h (0 Bft)
29.05.2014 02:00 13,6 C 12,8 C 98 % 1013,1 hPa 0,0 l/m 0,00 h 0,00 h 0,0 UV-I 0 W/m 0,0 km/h (0 Bft)
29.05.2014 03:00 13,7 C 12,8 C 98 % 1013,1 hPa 0,0 l/m 0,00 h 0,00 h 0,0 UV-I 0 W/m 0,0 km/h (0 Bft)
29.05.2014 04:00 13,7 C 12,7 C 98 % 1013,3 hPa 0,0 l/m 0,00 h 0,00 h 0,0 UV-I 0 W/m 0,0 km/h (0 Bft)
29.05.2014 05:00 13,4 C 12,1 C 98 % 1013,4 hPa 0,0 l/m 0,00 h 0,00 h 0,0 UV-I 0 W/m 0,0 km/h (0 Bft)
29.05.2014 06:00 12,8 C 11,7 C 98 % 1013,8 hPa 0,0 l/m 0,00 h 0,00 h 0,0 UV-I 9 W/m 0,0 km/h (0 Bft)
29.05.2014 07:00 12,4 C 11,6 C 98 % 1014,2 hPa 0,0 l/m 0,00 h 0,00 h 0,0 UV-I 21 W/m 0,1 km/h (0 Bft)
29.05.2014 08:00 12,1 C 11,6 C 97 % 1014,7 hPa 0,0 l/m 0,00 h 0,00 h 0,0 UV-I 50 W/m 2,1 km/h (1 Bft)
29.05.2014 09:00 12,1 C 11,5 C 97 % 1015,0 hPa 0,0 l/m 0,00 h 0,00 h 0,0 UV-I 72 W/m 5,3 km/h (1 Bft)
29.05.2014 10:00 11,9 C 11,3 C 96 % 1015,3 hPa 0,0 l/m 0,00 h 0,00 h 0,0 UV-I 97 W/m 8,0 km/h (2 Bft)
29.05.2014 11:00 12,2 C 12,2 C 94 % 1015,7 hPa 0,0 l/m 0,00 h 0,00 h 0,6 UV-I 178 W/m 4,8 km/h (1 Bft)
29.05.2014 12:00 12,3 C 12,3 C 93 % 1016,1 hPa 0,0 l/m 0,00 h 0,00 h 0,7 UV-I 200 W/m 8,4 km/h (2 Bft)
29.05.2014 13:00 12,4 C 12,3 C 93 % 1016,4 hPa 0,0 l/m 0,00 h 0,00 h 0,6 UV-I 180 W/m 8,9 km/h (2 Bft)
29.05.2014 14:00 12,0 C 11,7 C 93 % 1016,7 hPa 0,0 l/m 0,00 h 0,00 h 0,0 UV-I 106 W/m 9,7 km/h (2 Bft)
29.05.2014 15:00 12,1 C 11,6 C 93 % 1016,9 hPa 0,0 l/m 0,00 h 0,33 h 0,0 UV-I 102 W/m 9,7 km/h (2 Bft)
29.05.2014 16:00 11,7 C 10,4 C 95 % 1017,1 hPa 0,6 l/m 0,00 h 0,97 h 0,0 UV-I 86 W/m 5,7 km/h (1 Bft)
29.05.2014 17:00 10,9 C 10,0 C 96 % 1017,4 hPa 0,2 l/m 0,00 h 0,90 h 0,0 UV-I 75 W/m 4,9 km/h (1 Bft)
29.05.2014 18:00 10,8 C 9,9 C 97 % 1017,6 hPa 0,0 l/m 0,00 h 0,27 h 0,0 UV-I 42 W/m 4,3 km/h (1 Bft)
29.05.2014 19:00 10,6 C 9,4 C 96 % 1018,0 hPa 0,0 l/m 0,00 h 0,00 h 0,0 UV-I 45 W/m 4,1 km/h (1 Bft)
29.05.2014 20:00 10,6 C 9,3 C 96 % 1018,4 hPa 0,0 l/m 0,00 h 0,30 h 0,0 UV-I 19 W/m 1,9 km/h (1 Bft)
29.05.2014 21:00 10,4 C 9,0 C 95 % 1018,8 hPa 0,0 l/m 0,00 h 0,00 h 0,0 UV-I 7 W/m 0,8 km/h (0 Bft)
29.05.2014 22:00 10,4 C 9,0 C 95 % 1019,2 hPa 0,0 l/m 0,00 h 0,00 h 0,0 UV-I 0 W/m 0,4 km/h (0 Bft)
29.05.2014 23:00 10,3 C 9,1 C 95 % 1019,5 hPa 0,0 l/m 0,00 h 0,00 h 0,0 UV-I 0 W/m 0,0 km/h (0 Bft)
30.05.2014 00:00 10,1 C 8,9 C 95 % 1019,6 hPa 0,0 l/m 0,00 h 0,00 h 0,0 UV-I 0 W/m 0,3 km/h (0 Bft)
30.05.2014 01:00 10,1 C 8,9 C 94 % 1019,5 hPa 0,0 l/m 0,00 h 0,00 h 0,0 UV-I 0 W/m 1,4 km/h (1 Bft)
30.05.2014 02:00 10,1 C 8,9 C 94 % 1019,5 hPa 0,0 l/m 0,00 h 0,00 h 0,0 UV-I 0 W/m 1,1 km/h (0 Bft)
30.05.2014 03:00 10,0 C 8,9 C 94 % 1019,7 hPa 0,0 l/m 0,00 h 0,00 h 0,0 UV-I 0 W/m 0,9 km/h (0 Bft)
30.05.2014 04:00 9,8 C 8,9 C 94 % 1019,8 hPa 0,0 l/m 0,00 h 0,00 h 0,0 UV-I 0 W/m 1,9 km/h (1 Bft)
30.05.2014 05:00 9,8 C 8,9 C 94 % 1020,1 hPa 0,0 l/m 0,00 h 0,00 h 0,0 UV-I 9 W/m 1,7 km/h (1 Bft)
30.05.2014 06:00 9,8 C 9,3 C 94 % 1020,5 hPa 0,0 l/m 0,00 h 0,00 h 0,0 UV-I 43 W/m 1,3 km/h (1 Bft)
30.05.2014 07:00 10,4 C 9,9 C 90 % 1020,9 hPa 0,0 l/m 0,10 h 0,00 h 0,0 UV-I 130 W/m 4,4 km/h (1 Bft)
30.05.2014 08:00 11,4 C 10,3 C 82 % 1021,2 hPa 0,0 l/m 0,73 h 0,00 h 0,5 UV-I 296 W/m 8,9 km/h (2 Bft)
30.05.2014 09:00 13,7 C 12,4 C 70 % 1021,4 hPa 0,0 l/m 0,97 h 0,00 h 1,2 UV-I 514 W/m 14,0 km/h (3 Bft)
30.05.2014 10:00 14,5 C 16,6 C 68 % 1021,6 hPa 0,0 l/m 0,53 h 0,00 h 1,8 UV-I 491 W/m 10,3 km/h (2 Bft)
30.05.2014 11:00 14,3 C 14,9 C 68 % 1021,9 hPa 0,0 l/m 0,43 h 0,00 h 1,6 UV-I 397 W/m 7,4 km/h (2 Bft)
30.05.2014 12:00 15,7 C 17,4 C 63 % 1021,9 hPa 0,0 l/m 0,40 h 0,00 h 3,2 UV-I 506 W/m 12,0 km/h (2 Bft)
30.05.2014 13:00 16,5 C 17,2 C 62 % 1022,1 hPa 0,0 l/m 0,47 h 0,00 h 2,9 UV-I 710 W/m 11,9 km/h (2 Bft)
30.05.2014 14:00 16,8 C 17,9 C 60 % 1022,1 hPa 0,0 l/m 0,40 h 0,00 h 3,1 UV-I 624 W/m 10,7 km/h (2 Bft)
30.05.2014 15:00 17,5 C 20,4 C 60 % 1022,2 hPa 0,0 l/m 0,63 h 0,00 h 3,3 UV-I 740 W/m 10,6 km/h (2 Bft)
30.05.2014 16:00 17,1 C 17,2 C 61 % 1022,1 hPa 0,0 l/m 0,63 h 0,00 h 1,9 UV-I 510 W/m 10,0 km/h (2 Bft)
30.05.2014 17:00 16,7 C 16,4 C 62 % 1022,2 hPa 0,0 l/m 0,47 h 0,00 h 1,1 UV-I 361 W/m 11,8 km/h (2 Bft)
30.05.2014 18:00 16,0 C 15,8 C 64 % 1022,1 hPa 0,0 l/m 0,03 h 0,00 h 0,0 UV-I 205 W/m 7,2 km/h (2 Bft)
30.05.2014 19:00 15,6 C 14,9 C 65 % 1022,3 hPa 0,0 l/m 0,00 h 0,00 h 0,0 UV-I 116 W/m 6,4 km/h (2 Bft)
30.05.2014 20:00 14,9 C 13,8 C 67 % 1022,4 hPa 0,0 l/m 0,03 h 0,00 h 0,0 UV-I 48 W/m 0,7 km/h (0 Bft)
30.05.2014 21:00 14,0 C 12,3 C 71 % 1022,4 hPa 0,0 l/m 0,10 h 0,00 h 0,0 UV-I 14 W/m 0,1 km/h (0 Bft)
30.05.2014 22:00 11,8 C 9,5 C 80 % 1022,6 hPa 0,0 l/m 0,00 h 0,00 h 0,0 UV-I 0 W/m 0,0 km/h (0 Bft)
30.05.2014 23:00 10,2 C 8,3 C 87 % 1022,8 hPa 0,0 l/m 0,00 h 0,00 h 0,0 UV-I 0 W/m 0,0 km/h (0 Bft)
31.05.2014 00:00 9,0 C 7,5 C 92 % 1023,0 hPa 0,0 l/m 0,00 h 0,00 h 0,0 UV-I 0 W/m 0,0 km/h (0 Bft)
31.05.2014 01:00 8,2 C 6,7 C 94 % 1023,1 hPa 0,0 l/m 0,00 h 0,00 h 0,0 UV-I 0 W/m 0,0 km/h (0 Bft)
31.05.2014 02:00 7,5 C 6,1 C 95 % 1023,1 hPa 0,0 l/m 0,00 h 0,00 h 0,0 UV-I 0 W/m 0,0 km/h (0 Bft)
31.05.2014 03:00 7,0 C 5,8 C 96 % 1022,9 hPa 0,0 l/m 0,00 h 0,00 h 0,0 UV-I 0 W/m 0,0 km/h (0 Bft)
31.05.2014 04:00 6,6 C 5,2 C 97 % 1022,8 hPa 0,0 l/m 0,00 h 0,00 h 0,0 UV-I 0 W/m 0,0 km/h (0 Bft)
31.05.2014 05:00 6,3 C 5,0 C 97 % 1022,4 hPa 0,0 l/m 0,00 h 0,00 h 0,0 UV-I 10 W/m 0,0 km/h (0 Bft)
31.05.2014 06:00 6,6 C 5,5 C 97 % 1022,6 hPa 0,0 l/m 0,00 h 0,00 h 0,0 UV-I 29 W/m 0,0 km/h (0 Bft)
31.05.2014 07:00 8,8 C 7,4 C 97 % 1022,9 hPa 0,0 l/m 0,13 h 0,00 h 0,0 UV-I 77 W/m 0,0 km/h (0 Bft)
31.05.2014 08:00 11,9 C 9,9 C 86 % 1023,1 hPa 0,0 l/m 0,97 h 0,00 h 0,5 UV-I 348 W/m 0,2 km/h (0 Bft)
31.05.2014 09:00 14,6 C 13,4 C 77 % 1023,3 hPa 0,0 l/m 0,97 h 0,00 h 1,1 UV-I 512 W/m 0,6 km/h (0 Bft)
31.05.2014 10:00 16,8 C 20,1 C 72 % 1023,2 hPa 0,0 l/m 0,97 h 0,00 h 2,3 UV-I 650 W/m 3,0 km/h (1 Bft)
31.05.2014 11:00 18,1 C 21,7 C 61 % 1023,1 hPa 0,0 l/m 0,90 h 0,00 h 3,2 UV-I 766 W/m 5,1 km/h (1 Bft)
31.05.2014 12:00 18,9 C 22,8 C 57 % 1022,7 hPa 0,0 l/m 0,93 h 0,00 h 3,9 UV-I 880 W/m 5,7 km/h (1 Bft)
31.05.2014 13:00 19,7 C 21,1 C 53 % 1022,2 hPa 0,0 l/m 0,83 h 0,00 h 2,4 UV-I 857 W/m 7,6 km/h (2 Bft)
31.05.2014 14:00 19,7 C 20,2 C 54 % 1022,0 hPa 0,0 l/m 0,63 h 0,00 h 3,5 UV-I 694 W/m 5,6 km/h (1 Bft)
31.05.2014 15:00 19,9 C 20,5 C 52 % 1021,9 hPa 0,0 l/m 0,37 h 0,00 h 2,4 UV-I 476 W/m 6,9 km/h (2 Bft)
31.05.2014 16:00 20,2 C 20,4 C 53 % 1021,6 hPa 0,0 l/m 0,80 h 0,00 h 2,1 UV-I 629 W/m 8,5 km/h (2 Bft)
31.05.2014 17:00 19,6 C 19,1 C 53 % 1021,3 hPa 0,0 l/m 0,50 h 0,00 h 1,1 UV-I 334 W/m 4,0 km/h (1 Bft)
31.05.2014 18:00 19,4 C 18,7 C 54 % 1020,9 hPa 0,0 l/m 0,07 h 0,00 h 0,0 UV-I 185 W/m 7,3 km/h (2 Bft)
31.05.2014 19:00 19,0 C 17,9 C 56 % 1021,0 hPa 0,0 l/m 0,00 h 0,00 h 0,0 UV-I 115 W/m 6,1 km/h (2 Bft)
31.05.2014 20:00 18,0 C 16,6 C 59 % 1020,9 hPa 0,0 l/m 0,00 h 0,00 h 0,0 UV-I 57 W/m 0,4 km/h (0 Bft)
31.05.2014 21:00 16,6 C 14,1 C 67 % 1021,0 hPa 0,0 l/m 0,00 h 0,00 h 0,0 UV-I 13 W/m 0,0 km/h (0 Bft)
31.05.2014 22:00 15,2 C 13,3 C 73 % 1021,3 hPa 0,0 l/m 0,00 h 0,00 h 0,0 UV-I 0 W/m 5,2 km/h (1 Bft)
31.05.2014 23:00 14,0 C 12,6 C 73 % 1021,7 hPa 0,0 l/m 0,00 h 0,00 h 0,0 UV-I 0 W/m 10,8 km/h (2 Bft)
01.06.2014 00:00 12,6 C 11,2 C 78 % 1021,7 hPa 0,0 l/m 0,00 h 0,00 h 0,0 UV-I 0 W/m 1,0 km/h (0 Bft)
01.06.2014 01:00 11,7 C 10,1 C 82 % 1021,7 hPa 0,0 l/m 0,00 h 0,00 h 0,0 UV-I 0 W/m 0,1 km/h (0 Bft)
01.06.2014 02:00 10,7 C 9,0 C 84 % 1021,6 hPa 0,0 l/m 0,00 h 0,00 h 0,0 UV-I 0 W/m 0,0 km/h (0 Bft)
01.06.2014 03:00 9,9 C 8,4 C 87 % 1021,4 hPa 0,0 l/m 0,00 h 0,00 h 0,0 UV-I 0 W/m 0,0 km/h (0 Bft)
01.06.2014 04:00 9,9 C 8,7 C 88 % 1021,4 hPa 0,0 l/m 0,00 h 0,00 h 0,0 UV-I 0 W/m 0,3 km/h (0 Bft)
01.06.2014 05:00 9,9 C 9,0 C 89 % 1021,5 hPa 0,0 l/m 0,00 h 0,00 h 0,0 UV-I 8 W/m 0,3 km/h (0 Bft)
01.06.2014 06:00 10,3 C 9,4 C 89 % 1021,7 hPa 0,0 l/m 0,00 h 0,00 h 0,0 UV-I 44 W/m 0,0 km/h (0 Bft)
01.06.2014 07:00 11,1 C 10,3 C 87 % 1021,7 hPa 0,0 l/m 0,13 h 0,00 h 0,0 UV-I 117 W/m 1,4 km/h (1 Bft)
01.06.2014 08:00 12,9 C 12,4 C 79 % 1021,8 hPa 0,0 l/m 0,70 h 0,00 h 0,0 UV-I 302 W/m 8,3 km/h (2 Bft)
01.06.2014 09:00 13,8 C 13,4 C 77 % 1021,9 hPa 0,0 l/m 0,73 h 0,00 h 0,7 UV-I 363 W/m 15,1 km/h (3 Bft)
01.06.2014 10:00 14,7 C 15,2 C 74 % 1021,7 hPa 0,0 l/m 0,73 h 0,00 h 1,3 UV-I 411 W/m 12,2 km/h (3 Bft)
01.06.2014 11:00 16,1 C 18,0 C 66 % 1021,5 hPa 0,0 l/m 0,90 h 0,00 h 2,5 UV-I 669 W/m 8,4 km/h (2 Bft)
01.06.2014 12:00 17,1 C 20,3 C 61 % 1021,4 hPa 0,0 l/m 0,90 h 0,00 h 3,4 UV-I 796 W/m 8,3 km/h (2 Bft)
01.06.2014 13:00 16,8 C 17,2 C 62 % 1021,3 hPa 0,0 l/m 0,10 h 0,00 h 1,1 UV-I 273 W/m 9,0 km/h (2 Bft)
01.06.2014 14:00 17,2 C 18,1 C 62 % 1021,1 hPa 0,0 l/m 0,40 h 0,00 h 2,1 UV-I 468 W/m 6,7 km/h (2 Bft)
01.06.2014 15:00 18,5 C 21,1 C 57 % 1020,7 hPa 0,0 l/m 0,83 h 0,00 h 3,1 UV-I 732 W/m 9,9 km/h (2 Bft)
01.06.2014 16:00 18,4 C 18,4 C 54 % 1020,2 hPa 0,0 l/m 0,80 h 0,00 h 2,0 UV-I 603 W/m 11,1 km/h (2 Bft)
01.06.2014 17:00 18,5 C 18,0 C 55 % 1020,0 hPa 0,0 l/m 0,40 h 0,00 h 1,3 UV-I 334 W/m 8,3 km/h (2 Bft)
01.06.2014 18:00 18,2 C 17,0 C 54 % 1019,7 hPa 0,0 l/m 0,13 h 0,00 h 0,0 UV-I 177 W/m 5,2 km/h (1 Bft)
01.06.2014 19:00 18,1 C 16,9 C 56 % 1019,5 hPa 0,0 l/m 0,00 h 0,00 h 0,0 UV-I 70 W/m 9,8 km/h (2 Bft)
01.06.2014 20:00 17,3 C 15,7 C 59 % 1019,6 hPa 0,0 l/m 0,00 h 0,00 h 0,0 UV-I 38 W/m 0,8 km/h (0 Bft)
01.06.2014 21:00 15,4 C 12,9 C 68 % 1019,7 hPa 0,0 l/m 0,00 h 0,00 h 0,0 UV-I 12 W/m 0,1 km/h (0 Bft)
01.06.2014 22:00 13,1 C 10,6 C 79 % 1019,9 hPa 0,0 l/m 0,00 h 0,00 h 0,0 UV-I 0 W/m 0,0 km/h (0 Bft)
01.06.2014 23:00 11,6 C 9,4 C 85 % 1019,9 hPa 0,0 l/m 0,00 h 0,00 h 0,0 UV-I 0 W/m 0,0 km/h (0 Bft)
Min-Datum _ 31.05.14 31.05.14 31.05.14 27.05.14 - - - - - 26.05.14
_ Min-Zeit 05:28 04:26 14:54 18:00 - - - - - 00:00
Minimum _ 6,2 C 5,0 C 47 % 1008,9 hPa - - - - - 0,0 km/h (0 Bft)
Max-Datum _ 31.05.14 30.05.14 27.05.14 31.05.14 27.05.14 26.05.14 26.05.14 30.05.14 30.05.14 28.05.14
_ Max-Zeit 16:18 15:32 08:50 09:08 13:24 08:32 09:50 12:44 13:12 10:10
Maximum _ 21,4 C 24,4 C 100 % 1023,3 hPa 5,8 l/m 0,03 h 0,03 h 4,9 UV-I 1174 W/m 25,7 km/h
W-SW (4 Bft)
Durchschnitt _ 14,2 C 13,5 C 85 % 1016,6 hPa #35,2 l/m #22:58 h #22:42 h 1,7 UV-I 207 W/m 3,8 km/h (1 Bft)
© 2014 W. Hausmann